createdAt,value
2022-08-11T00:01:53.347Z,14.20
2022-08-11T00:04:23.271Z,14.13
2022-08-11T00:06:51.516Z,14.11
2022-08-11T00:09:23.537Z,14.19
2022-08-11T00:11:53.499Z,14.30
2022-08-11T00:14:36.867Z,14.26
2022-08-11T00:17:11.065Z,14.21
2022-08-11T00:20:12.186Z,14.11
2022-08-11T00:22:29.350Z,13.98
2022-08-11T00:25:02.180Z,13.88
2022-08-11T00:27:35.273Z,13.74
2022-08-11T00:30:02.851Z,13.78
2022-08-11T00:32:34.402Z,13.71
2022-08-11T00:35:55.702Z,13.56
2022-08-11T00:37:52.025Z,13.52
2022-08-11T00:40:27.243Z,13.30
2022-08-11T00:43:08.137Z,13.28
2022-08-11T00:45:45.307Z,13.42
2022-08-11T00:48:29.894Z,13.24
2022-08-11T00:51:19.008Z,13.21
2022-08-11T00:54:00.196Z,13.18
2022-08-11T00:57:03.989Z,13.32
2022-08-11T01:00:13.161Z,13.42
2022-08-11T01:02:54.215Z,13.05
2022-08-11T01:06:03.447Z,13.09
2022-08-11T01:09:05.229Z,13.00
2022-08-11T01:12:16.303Z,12.81
2022-08-11T01:15:24.680Z,13.04
2022-08-11T01:18:48.194Z,13.09
2022-08-11T01:22:02.970Z,13.06
2022-08-11T01:25:07.682Z,12.88
2022-08-11T01:28:16.291Z,12.77
2022-08-11T01:31:25.099Z,12.82
2022-08-11T01:34:35.775Z,12.83
2022-08-11T01:37:24.189Z,12.82
2022-08-11T01:40:43.848Z,12.90
2022-08-11T01:43:35.524Z,13.02
2022-08-11T01:46:10.941Z,13.04
2022-08-11T01:48:45.118Z,12.95
2022-08-11T01:51:24.834Z,12.90
2022-08-11T01:54:03.142Z,12.95
2022-08-11T01:56:50.313Z,13.02
2022-08-11T01:59:24.083Z,13.06
2022-08-11T02:02:23.628Z,12.98
2022-08-11T02:04:59.434Z,12.89
2022-08-11T02:07:33.375Z,12.80
2022-08-11T02:10:35.419Z,12.73
2022-08-11T02:13:14.933Z,12.89
2022-08-11T02:15:51.396Z,12.69
2022-08-11T02:18:24.452Z,12.51
2022-08-11T02:20:59.227Z,12.79
2022-08-11T02:24:06.804Z,12.75
2022-08-11T02:26:25.135Z,12.56
2022-08-11T02:29:05.474Z,12.80
2022-08-11T02:32:23.850Z,12.81
2022-08-11T02:34:44.774Z,12.68
2022-08-11T02:37:41.412Z,12.70
2022-08-11T02:40:18.262Z,12.62
2022-08-11T02:43:02.432Z,12.60
2022-08-11T02:45:37.666Z,12.60
2022-08-11T02:48:16.628Z,12.64
2022-08-11T02:50:55.816Z,12.50
2022-08-11T02:53:30.495Z,12.37
2022-08-11T02:56:06.810Z,12.24
2022-08-11T02:58:45.298Z,12.17
2022-08-11T03:01:18.259Z,12.11
2022-08-11T03:03:53.393Z,12.11
2022-08-11T03:06:36.054Z,12.09
2022-08-11T03:09:10.682Z,12.12
2022-08-11T03:11:56.025Z,12.10
2022-08-11T03:14:29.022Z,11.99
2022-08-11T03:17:05.407Z,12.05
2022-08-11T03:19:46.376Z,12.12
2022-08-11T03:22:22.026Z,12.11
2022-08-11T03:25:00.718Z,12.04
2022-08-11T03:27:34.675Z,11.98
2022-08-11T03:30:16.109Z,11.93
2022-08-11T03:32:55.742Z,11.93
2022-08-11T03:35:23.064Z,11.82
2022-08-11T03:37:55.904Z,11.88
2022-08-11T03:40:38.490Z,11.99
2022-08-11T03:43:19.341Z,11.79
2022-08-11T03:46:00.887Z,11.95
2022-08-11T03:48:41.545Z,11.92
2022-08-11T03:51:18.469Z,11.76
2022-08-11T03:54:07.480Z,11.62
2022-08-11T03:57:08.489Z,11.46
2022-08-11T04:00:24.995Z,11.35
2022-08-11T04:03:22.529Z,11.28
2022-08-11T04:06:34.647Z,11.30
2022-08-11T04:09:36.035Z,11.37
2022-08-11T04:12:48.203Z,11.09
2022-08-11T04:15:47.675Z,11.37
2022-08-11T04:19:01.095Z,11.41
2022-08-11T04:22:02.494Z,11.08
2022-08-11T04:25:10.336Z,11.30
2022-08-11T04:28:28.386Z,11.40
2022-08-11T04:31:44.215Z,11.54
2022-08-11T04:34:40.062Z,11.54
2022-08-11T04:37:27.194Z,11.33
2022-08-11T04:40:30.087Z,11.17
2022-08-11T04:43:35.523Z,11.10
2022-08-11T04:46:38.120Z,11.29
2022-08-11T04:49:39.027Z,11.39
2022-08-11T04:52:38.098Z,11.69
2022-08-11T04:55:40.031Z,11.63
2022-08-11T04:58:19.047Z,11.73
2022-08-11T05:00:57.517Z,11.53
2022-08-11T05:03:45.184Z,11.58
2022-08-11T05:06:30.876Z,11.58
2022-08-11T05:09:23.898Z,11.50
2022-08-11T05:12:06.300Z,11.58
2022-08-11T05:14:36.062Z,11.61
2022-08-11T05:17:12.266Z,11.54
2022-08-11T05:19:46.201Z,11.50
2022-08-11T05:22:18.093Z,11.46
2022-08-11T05:24:51.062Z,11.53
2022-08-11T05:27:21.940Z,11.51
2022-08-11T05:29:58.772Z,11.46
2022-08-11T05:32:32.364Z,11.32
2022-08-11T05:35:02.776Z,11.44
2022-08-11T05:37:41.179Z,12.62
2022-08-11T05:40:11.475Z,14.30
2022-08-11T05:42:50.251Z,15.45
2022-08-11T05:45:19.026Z,16.19
2022-08-11T05:47:49.867Z,16.94
2022-08-11T05:50:31.031Z,17.06
2022-08-11T05:53:01.175Z,16.99
2022-08-11T05:55:32.604Z,17.13
2022-08-11T05:58:10.064Z,17.19
2022-08-11T06:00:45.549Z,17.42
2022-08-11T06:03:25.415Z,17.45
2022-08-11T06:05:54.499Z,17.92
2022-08-11T06:08:31.618Z,18.17
2022-08-11T06:11:07.412Z,18.47
2022-08-11T06:13:45.637Z,18.35
2022-08-11T06:16:15.429Z,18.60
2022-08-11T06:18:48.344Z,18.60
2022-08-11T06:21:29.235Z,18.78
2022-08-11T06:24:04.138Z,18.91
2022-08-11T06:27:09.149Z,19.01
2022-08-11T06:29:54.867Z,19.21
2022-08-11T06:32:26.754Z,19.55
2022-08-11T06:35:08.860Z,19.91
2022-08-11T06:37:58.956Z,20.15
2022-08-11T06:40:37.614Z,20.24
2022-08-11T06:43:19.872Z,20.42
2022-08-11T06:45:58.835Z,20.64
2022-08-11T06:48:27.485Z,20.77
2022-08-11T06:51:00.412Z,20.74
2022-08-11T06:53:34.698Z,20.82
2022-08-11T06:56:06.381Z,20.91
2022-08-11T06:58:36.532Z,20.99
2022-08-11T07:01:09.681Z,21.15
2022-08-11T07:03:43.066Z,21.27
2022-08-11T07:06:25.591Z,21.37
2022-08-11T07:09:18.351Z,21.49
2022-08-11T07:12:23.809Z,21.66
2022-08-11T07:15:00.131Z,21.85
2022-08-11T07:17:35.079Z,21.95
2022-08-11T07:20:06.086Z,21.95
2022-08-11T07:22:37.207Z,21.82
2022-08-11T07:25:11.713Z,21.95
2022-08-11T07:27:44.147Z,22.15
2022-08-11T07:30:12.071Z,22.29
2022-08-11T07:32:50.956Z,22.35
2022-08-11T07:35:22.486Z,22.38
2022-08-11T07:38:07.098Z,22.51
2022-08-11T07:40:35.653Z,22.71
2022-08-11T07:43:05.852Z,22.72
2022-08-11T07:45:34.250Z,22.80
2022-08-11T07:48:04.950Z,22.66
2022-08-11T07:50:34.451Z,22.86
2022-08-11T07:53:03.218Z,22.93
2022-08-11T07:55:51.018Z,23.08
2022-08-11T07:58:24.991Z,23.17
2022-08-11T08:01:01.326Z,23.24
2022-08-11T08:03:30.648Z,23.35
2022-08-11T08:05:58.552Z,23.12
2022-08-11T08:08:28.631Z,22.95
2022-08-11T08:10:58.741Z,23.12
2022-08-11T08:13:27.235Z,22.74
2022-08-11T08:15:57.742Z,22.47
2022-08-11T08:18:27.934Z,22.68
2022-08-11T08:20:59.947Z,22.80
2022-08-11T08:23:30.108Z,22.97
2022-08-11T08:26:01.608Z,23.25
2022-08-11T08:28:33.693Z,23.48
2022-08-11T08:31:07.497Z,23.80
2022-08-11T08:33:42.514Z,23.91
2022-08-11T08:36:12.098Z,23.87
2022-08-11T08:38:43.766Z,23.53
2022-08-11T08:41:16.571Z,23.51
2022-08-11T08:44:05.949Z,23.50
2022-08-11T08:46:49.572Z,22.72
2022-08-11T08:49:19.466Z,22.71
2022-08-11T08:52:20.260Z,22.89
2022-08-11T08:54:52.480Z,23.24
2022-08-11T08:57:39.685Z,23.39
2022-08-11T09:00:16.852Z,23.60
2022-08-11T09:02:46.874Z,23.66
2022-08-11T09:05:18.399Z,23.62
2022-08-11T09:07:51.624Z,23.35
2022-08-11T09:10:22.331Z,23.10
2022-08-11T09:12:52.796Z,23.18
2022-08-11T09:15:24.628Z,22.94
2022-08-11T09:17:54.415Z,23.01
2022-08-11T09:24:07.745Z,22.98
2022-08-11T09:26:03.367Z,22.75
2022-08-11T09:28:31.928Z,23.03
2022-08-11T09:31:02.311Z,23.25
2022-08-11T09:33:31.810Z,23.43
2022-08-11T09:36:01.393Z,23.80
2022-08-11T09:38:30.306Z,23.94
2022-08-11T09:40:58.974Z,23.83
2022-08-11T09:43:28.440Z,23.81
2022-08-11T09:45:57.532Z,23.86
2022-08-11T09:48:29.441Z,23.38
2022-08-11T09:50:59.169Z,22.91
2022-08-11T09:53:36.756Z,22.80
2022-08-11T09:56:13.073Z,22.40
2022-08-11T09:58:44.428Z,21.65
2022-08-11T10:01:14.699Z,21.95
2022-08-11T10:03:44.439Z,22.40
2022-08-11T10:06:16.026Z,22.79
2022-08-11T10:08:44.702Z,23.09
2022-08-11T10:11:17.916Z,23.56
2022-08-11T10:14:31.122Z,23.79
2022-08-11T10:16:39.901Z,23.94
2022-08-11T10:19:09.306Z,24.13
2022-08-11T10:21:42.675Z,24.49
2022-08-11T10:24:18.923Z,24.57
2022-08-11T10:26:49.615Z,24.88
2022-08-11T10:29:24.006Z,24.76
2022-08-11T10:31:59.317Z,24.96
2022-08-11T10:34:32.289Z,25.22
2022-08-11T10:37:06.918Z,25.44
2022-08-11T10:39:43.527Z,25.59
2022-08-11T10:42:21.014Z,25.63
2022-08-11T10:45:02.785Z,25.84
2022-08-11T10:47:31.673Z,25.90
2022-08-11T10:50:05.303Z,25.78
2022-08-11T10:52:36.378Z,25.51
2022-08-11T10:55:04.581Z,25.91
2022-08-11T10:57:33.163Z,25.66
2022-08-11T11:00:06.332Z,25.90
2022-08-11T11:02:35.412Z,25.53
2022-08-11T11:05:13.292Z,25.65
2022-08-11T11:07:52.780Z,25.64
2022-08-11T11:10:20.400Z,25.49
2022-08-11T11:12:56.843Z,25.55
2022-08-11T11:15:26.783Z,24.95
2022-08-11T11:17:57.681Z,25.52
2022-08-11T11:20:47.984Z,25.78
2022-08-11T11:23:20.896Z,25.91
2022-08-11T11:26:27.558Z,26.05
2022-08-11T11:29:20.970Z,26.15
2022-08-11T11:32:12.811Z,26.13
2022-08-11T11:35:06.341Z,26.15
2022-08-11T11:37:38.581Z,26.16
2022-08-11T11:40:10.641Z,26.33
2022-08-11T11:42:40.749Z,26.50
2022-08-11T11:45:09.440Z,25.82
2022-08-11T11:50:41.664Z,26.48
2022-08-11T11:53:15.410Z,26.24
2022-08-11T11:55:43.031Z,26.08
2022-08-11T11:58:17.898Z,26.28
2022-08-11T12:00:46.299Z,26.40
2022-08-11T12:03:14.160Z,26.10
2022-08-11T12:05:48.294Z,26.05
2022-08-11T12:08:17.830Z,26.04
2022-08-11T12:10:49.274Z,25.99
2022-08-11T12:13:17.656Z,25.90
2022-08-11T12:16:34.149Z,25.96
2022-08-11T12:18:41.059Z,25.91
2022-08-11T12:21:10.042Z,25.78
2022-08-11T12:23:39.804Z,25.75
2022-08-11T12:26:26.262Z,25.78
2022-08-11T12:28:58.565Z,25.97
2022-08-11T12:31:25.970Z,25.98
2022-08-11T12:34:01.502Z,25.89
2022-08-11T12:36:29.643Z,25.49
2022-08-11T12:38:58.221Z,25.68
2022-08-11T12:41:25.878Z,25.71
2022-08-11T12:43:56.789Z,25.77
2022-08-11T12:46:31.546Z,25.72
2022-08-11T12:49:02.399Z,25.38
2022-08-11T12:51:38.299Z,25.61
2022-08-11T12:54:29.824Z,25.72
2022-08-11T12:57:01.371Z,25.69
2022-08-11T12:59:28.979Z,25.23
2022-08-11T13:01:56.020Z,25.24
2022-08-11T13:04:30.648Z,25.30
2022-08-11T13:06:57.631Z,25.31
2022-08-11T13:09:27.249Z,25.24
2022-08-11T13:11:57.608Z,25.28
2022-08-11T13:14:28.809Z,25.11
2022-08-11T13:16:59.924Z,25.23
2022-08-11T13:19:29.234Z,25.00
2022-08-11T13:21:57.634Z,25.10
2022-08-11T13:24:27.736Z,25.03
2022-08-11T13:26:55.346Z,25.02
2022-08-11T13:29:25.511Z,25.01
2022-08-11T13:31:54.790Z,24.93
2022-08-11T13:34:25.935Z,24.98
2022-08-11T13:36:55.825Z,24.89
2022-08-11T13:39:25.924Z,24.91
2022-08-11T13:41:55.549Z,24.86
2022-08-11T13:44:26.005Z,24.91
2022-08-11T13:46:56.230Z,24.86
2022-08-11T13:49:29.485Z,24.89
2022-08-11T13:51:57.370Z,24.90
2022-08-11T13:54:27.537Z,24.94
2022-08-11T13:57:00.496Z,25.02
2022-08-11T13:59:31.385Z,24.67
2022-08-11T14:02:19.887Z,24.82
2022-08-11T14:04:53.878Z,24.88
2022-08-11T14:07:24.207Z,24.90
2022-08-11T14:09:58.594Z,24.77
2022-08-11T14:12:31.436Z,24.52
2022-08-11T14:15:07.829Z,24.56
2022-08-11T14:17:48.834Z,24.32
2022-08-11T14:20:40.125Z,24.29
2022-08-11T14:23:05.963Z,24.27
2022-08-11T14:26:00.346Z,24.34
2022-08-11T14:28:45.156Z,24.22
2022-08-11T14:31:15.048Z,24.05
2022-08-11T14:33:58.085Z,23.96
2022-08-11T14:36:32.293Z,24.01
2022-08-11T14:39:02.053Z,23.93
2022-08-11T14:41:31.266Z,23.97
2022-08-11T14:44:13.843Z,23.92
2022-08-11T14:46:43.447Z,23.90
2022-08-11T14:49:13.601Z,23.82
2022-08-11T14:51:45.147Z,23.80
2022-08-11T14:54:14.985Z,23.84
2022-08-11T14:56:43.631Z,23.89
2022-08-11T14:59:14.975Z,23.93
2022-08-11T15:01:50.674Z,23.97
2022-08-11T15:04:35.262Z,23.83
2022-08-11T15:07:16.243Z,23.74
2022-08-11T15:10:11.678Z,23.68
2022-08-11T15:12:34.934Z,23.49
2022-08-11T15:15:07.113Z,23.39
2022-08-11T15:17:43.566Z,23.33
2022-08-11T15:20:15.548Z,23.02
2022-08-11T15:22:42.730Z,23.14
2022-08-11T15:25:10.128Z,23.02
2022-08-11T15:27:39.411Z,23.07
2022-08-11T15:30:10.553Z,23.04
2022-08-11T15:32:50.081Z,23.06
2022-08-11T15:35:18.523Z,23.05
2022-08-11T15:37:49.639Z,23.03
2022-08-11T15:40:31.717Z,23.01
2022-08-11T15:43:07.346Z,22.83
2022-08-11T15:45:44.768Z,22.85
2022-08-11T15:48:19.185Z,22.86
2022-08-11T15:50:52.292Z,22.80
2022-08-11T15:53:27.060Z,22.83
2022-08-11T15:55:55.290Z,22.69
2022-08-11T15:58:26.230Z,22.72
2022-08-11T16:01:04.089Z,22.38
2022-08-11T16:04:06.706Z,22.19
2022-08-11T16:06:35.321Z,22.01
2022-08-11T16:09:05.528Z,21.87
2022-08-11T16:11:35.932Z,21.87
2022-08-11T16:14:07.100Z,21.80
2022-08-11T16:16:37.700Z,21.86
2022-08-11T16:19:07.591Z,21.76
2022-08-11T16:21:37.025Z,21.68
2022-08-11T16:27:05.818Z,21.65
2022-08-11T16:27:12.293Z,21.62
2022-08-11T16:29:43.459Z,21.59
2022-08-11T16:32:16.295Z,21.57
2022-08-11T16:34:48.280Z,21.59
2022-08-11T16:37:17.695Z,21.57
2022-08-11T16:39:48.368Z,21.57
2022-08-11T16:43:05.194Z,21.55
2022-08-11T16:45:09.680Z,21.56
2022-08-11T16:48:03.198Z,21.50
2022-08-11T16:50:29.704Z,21.51
2022-08-11T16:52:56.685Z,21.47
2022-08-11T16:55:51.461Z,21.36
2022-08-11T16:58:18.958Z,21.26
2022-08-11T17:00:51.034Z,21.14
2022-08-11T17:03:23.071Z,21.01
2022-08-11T17:05:53.811Z,21.00
2022-08-11T17:08:29.758Z,20.81
2022-08-11T17:11:03.828Z,20.84
2022-08-11T17:13:38.822Z,20.67
2022-08-11T17:16:10.927Z,20.52
2022-08-11T17:19:00.191Z,20.44
2022-08-11T17:21:30.531Z,20.23
2022-08-11T17:24:08.977Z,19.97
2022-08-11T17:26:40.944Z,19.75
2022-08-11T17:29:11.114Z,19.63
2022-08-11T17:34:22.210Z,18.78
2022-08-11T17:36:52.097Z,18.59
2022-08-11T17:39:26.238Z,18.51
2022-08-11T17:41:54.210Z,18.21
2022-08-11T17:44:31.618Z,18.09
2022-08-11T17:47:05.934Z,17.86
2022-08-11T17:49:39.476Z,17.78
2022-08-11T17:52:12.184Z,17.26
2022-08-11T17:54:41.905Z,17.50
2022-08-11T17:57:21.291Z,17.51
2022-08-11T17:59:51.407Z,17.47
2022-08-11T18:02:21.986Z,17.49
2022-08-11T18:05:07.352Z,17.42
2022-08-11T18:07:42.077Z,17.45
2022-08-11T18:10:10.554Z,17.38
2022-08-11T18:12:39.300Z,17.33
2022-08-11T18:15:09.803Z,17.31
2022-08-11T18:17:38.009Z,17.24
2022-08-11T18:20:12.187Z,17.24
2022-08-11T18:22:45.039Z,17.20
2022-08-11T18:25:15.408Z,17.06
2022-08-11T18:27:46.619Z,16.97
2022-08-11T18:30:15.879Z,16.94
2022-08-11T18:32:50.167Z,16.78
2022-08-11T18:35:20.706Z,16.74
2022-08-11T18:37:50.155Z,16.74
2022-08-11T18:40:20.018Z,16.62
2022-08-11T18:42:49.865Z,16.63
2022-08-11T18:45:22.106Z,16.74
2022-08-11T18:47:52.216Z,16.73
2022-08-11T18:50:39.549Z,16.79
2022-08-11T18:53:10.813Z,16.94
2022-08-11T18:55:40.686Z,16.95
2022-08-11T18:58:11.221Z,17.10
2022-08-11T19:00:40.308Z,17.13
2022-08-11T19:03:10.236Z,17.03
2022-08-11T19:06:32.061Z,17.04
2022-08-11T19:08:35.308Z,16.82
2022-08-11T19:11:10.897Z,17.01
2022-08-11T19:13:43.654Z,16.67
2022-08-11T19:16:13.252Z,16.59
2022-08-11T19:18:43.472Z,16.70
2022-08-11T19:21:15.462Z,16.55
2022-08-11T19:23:47.633Z,16.53
2022-08-11T19:26:16.403Z,16.59
2022-08-11T19:28:46.422Z,16.47
2022-08-11T19:31:15.463Z,16.61
2022-08-11T19:34:02.457Z,17.08
2022-08-11T19:36:35.142Z,17.52
2022-08-11T19:39:02.967Z,17.63
2022-08-11T19:41:57.010Z,17.60
2022-08-11T19:44:21.893Z,17.79
2022-08-11T19:46:51.961Z,17.85
2022-08-11T19:49:21.058Z,17.77
2022-08-11T19:51:53.393Z,17.84
2022-08-11T19:54:24.433Z,17.76
2022-08-11T19:56:57.312Z,17.79
2022-08-11T19:59:26.914Z,17.85
2022-08-11T20:02:01.658Z,17.87
2022-08-11T20:04:41.399Z,17.82
2022-08-11T20:07:15.995Z,17.81
2022-08-11T20:10:04.845Z,17.88
2022-08-11T20:12:36.229Z,17.89
2022-08-11T20:15:05.399Z,17.87
2022-08-11T20:17:38.131Z,17.84
2022-08-11T20:20:07.647Z,17.79
2022-08-11T20:22:38.433Z,17.72
2022-08-11T20:25:08.138Z,17.82
2022-08-11T20:27:39.699Z,17.75
2022-08-11T20:30:09.354Z,17.69
2022-08-11T20:32:40.783Z,17.65
2022-08-11T20:35:10.400Z,17.68
2022-08-11T20:37:43.562Z,17.70
2022-08-11T20:40:23.568Z,17.69
2022-08-11T20:42:51.083Z,17.65
2022-08-11T20:45:23.966Z,17.64
2022-08-11T20:47:58.869Z,17.60
2022-08-11T20:50:31.623Z,17.64
2022-08-11T20:53:00.123Z,17.58
2022-08-11T20:55:46.359Z,17.58
2022-08-11T20:58:25.505Z,17.39
2022-08-11T21:00:55.834Z,17.44
2022-08-11T21:03:35.338Z,17.44
2022-08-11T21:06:11.206Z,17.37
2022-08-11T21:08:41.806Z,17.31
2022-08-11T21:11:11.891Z,17.30
2022-08-11T21:13:43.254Z,17.23
2022-08-11T21:16:25.270Z,17.27
2022-08-11T21:19:00.356Z,17.22
2022-08-11T21:21:45.437Z,17.28
2022-08-11T21:24:20.269Z,17.25
2022-08-11T21:26:53.015Z,17.27
2022-08-11T21:29:23.685Z,17.24
2022-08-11T21:31:53.204Z,17.14
2022-08-11T21:34:23.695Z,17.10
2022-08-11T21:36:53.685Z,17.13
2022-08-11T21:39:25.391Z,17.06
2022-08-11T21:41:56.086Z,16.95
2022-08-11T21:44:25.445Z,16.96
2022-08-11T21:46:54.982Z,16.95
2022-08-11T21:49:26.391Z,16.93
2022-08-11T21:51:53.683Z,16.75
2022-08-11T21:54:24.339Z,16.75
2022-08-11T21:56:54.630Z,16.81
2022-08-11T21:59:27.848Z,16.75
2022-08-11T22:01:58.148Z,16.79
2022-08-11T22:04:28.243Z,16.79
2022-08-11T22:06:56.172Z,16.81
2022-08-11T22:09:24.655Z,16.81
2022-08-11T22:12:29.274Z,16.81
2022-08-11T22:14:42.294Z,16.74
2022-08-11T22:17:09.722Z,16.74
2022-08-11T22:19:37.843Z,16.66
2022-08-11T22:22:10.162Z,16.61
2022-08-11T22:24:41.408Z,16.57
2022-08-11T22:27:10.164Z,16.46
2022-08-11T22:29:51.007Z,16.56
2022-08-11T22:32:20.918Z,16.52
2022-08-11T22:34:53.284Z,16.41
2022-08-11T22:37:27.148Z,16.54
2022-08-11T22:40:02.218Z,16.46
2022-08-11T22:42:43.538Z,16.46
2022-08-11T22:45:12.994Z,16.40
2022-08-11T22:47:43.878Z,16.36
2022-08-11T22:50:14.554Z,16.40
2022-08-11T22:52:43.330Z,16.39
2022-08-11T22:55:20.913Z,16.40
2022-08-11T22:58:00.969Z,16.39
2022-08-11T23:00:33.079Z,16.42
2022-08-11T23:03:00.209Z,16.34
2022-08-11T23:05:34.121Z,16.33
2022-08-11T23:08:01.251Z,16.31
2022-08-11T23:10:34.450Z,16.22
2022-08-11T23:13:01.788Z,16.31
2022-08-11T23:15:31.997Z,16.18
2022-08-11T23:18:04.714Z,16.27
2022-08-11T23:20:37.023Z,16.24
2022-08-11T23:23:12.946Z,16.28
2022-08-11T23:25:45.892Z,16.24
2022-08-11T23:28:15.472Z,16.25
2022-08-11T23:30:43.385Z,16.19
2022-08-11T23:33:13.862Z,16.24
2022-08-11T23:35:52.676Z,16.24
2022-08-11T23:38:24.094Z,16.20
2022-08-11T23:40:54.737Z,16.17
2022-08-11T23:43:23.028Z,16.16
2022-08-11T23:45:50.144Z,16.17
2022-08-11T23:48:20.027Z,16.05
2022-08-11T23:50:47.980Z,16.03
2022-08-11T23:53:15.440Z,15.99
2022-08-11T23:55:43.151Z,15.95
2022-08-11T23:58:15.827Z,15.98
